Details for FedEx at OMDB




Go Back


Latest METAR
Local Time

OMDB 241400Z 03008KT 350V060 8000 NSC 29/13 Q1007 NOSIG

24/02/2018, 18:02:43

Description
Results
FedEx Logo
Number of Pilots based at OMDB
1 Pilots Based here
Number of FedEx Flights Departed from OMDB
0 Flights Departed
Number of FedEx Flights Arrived at OMDB
0 Flights Arrived
Number of FedEx Schedules Departing from OMDB
22 Schedules
Number of FedEx Schedules Arriving at OMDB
22 Schedules
Number of FedEx Schedules Departing from OMDB availible today
3 Schedules Today
Number of FedEx Schedules Arriving at OMDB availible today
4 Schedules Today
Average Landing Rate at OMDB
-221 fpm
FedEx Average Landing Rate at OMDB
0 fpm
Total Fuel Purchased at OMDB by FedEx
0.00 kgs / 0.00 lbs

Pilots Based at OMDB


Pilot ID
Pilot Name
Pilot Rank
No. of Flights
No. of Flying Hours
Adam Noble
87
375.36
Content